createdAt,value
2023-05-05T00:00:21.512Z,248.43
2023-05-05T00:01:21.557Z,248.60
2023-05-05T00:02:21.700Z,249.05
2023-05-05T00:03:21.702Z,248.69
2023-05-05T00:04:21.683Z,249.28
2023-05-05T00:05:21.731Z,248.15
2023-05-05T00:06:21.719Z,249.04
2023-05-05T00:07:21.783Z,248.99
2023-05-05T00:08:21.846Z,248.60
2023-05-05T00:09:21.836Z,249.16
2023-05-05T00:10:21.884Z,249.02
2023-05-05T00:11:21.967Z,248.68
2023-05-05T00:12:21.979Z,248.02
2023-05-05T00:13:21.983Z,249.13
2023-05-05T00:14:22.037Z,248.39
2023-05-05T00:15:22.096Z,248.84
2023-05-05T00:16:22.184Z,248.77
2023-05-05T00:17:22.168Z,248.28
2023-05-05T00:18:22.181Z,248.52
2023-05-05T00:19:22.223Z,248.39
2023-05-05T00:20:22.270Z,248.51
2023-05-05T00:21:22.320Z,247.48
2023-05-05T00:22:22.311Z,249.13
2023-05-05T00:23:22.400Z,248.64
2023-05-05T00:24:22.471Z,248.95
2023-05-05T00:25:22.472Z,249.57
2023-05-05T00:26:22.524Z,248.85
2023-05-05T00:27:22.546Z,248.60
2023-05-05T00:28:22.592Z,249.20
2023-05-05T00:29:22.641Z,248.95
2023-05-05T00:30:22.678Z,248.81
2023-05-05T00:31:22.844Z,249.36
2023-05-05T00:32:22.802Z,249.72
2023-05-05T00:33:22.843Z,248.57
2023-05-05T00:34:22.890Z,248.84
2023-05-05T00:35:22.911Z,248.46
2023-05-05T00:36:23.004Z,249.13
2023-05-05T00:37:23.017Z,249.67
2023-05-05T00:38:23.050Z,248.25
2023-05-05T00:39:23.124Z,249.49
2023-05-05T00:40:23.172Z,249.80
2023-05-05T00:41:23.246Z,249.71
2023-05-05T00:42:23.300Z,248.99
2023-05-05T00:43:23.354Z,249.18
2023-05-05T00:44:23.421Z,249.26
2023-05-05T00:45:23.428Z,250.00
2023-05-05T00:46:23.554Z,249.09
2023-05-05T00:47:23.552Z,249.16
2023-05-05T00:48:23.587Z,249.90
2023-05-05T00:49:23.729Z,249.44
2023-05-05T00:50:23.712Z,249.12
2023-05-05T00:51:23.777Z,249.11
2023-05-05T00:52:23.836Z,248.88
2023-05-05T00:53:23.851Z,248.44
2023-05-05T00:54:23.922Z,249.04
2023-05-05T00:55:23.959Z,248.92
2023-05-05T00:56:24.103Z,249.18
2023-05-05T00:57:24.032Z,249.02
2023-05-05T00:58:24.134Z,247.69
2023-05-05T00:59:24.141Z,249.16
2023-05-05T01:00:24.198Z,248.89
2023-05-05T01:01:24.280Z,248.78
2023-05-05T01:02:24.290Z,248.15
2023-05-05T01:03:24.445Z,248.67
2023-05-05T01:04:24.390Z,248.40
2023-05-05T01:05:24.427Z,249.18
2023-05-05T01:06:24.488Z,248.66
2023-05-05T01:07:24.548Z,249.06
2023-05-05T01:08:24.630Z,248.78
2023-05-05T01:09:24.657Z,247.46
2023-05-05T01:10:25.028Z,248.94
2023-05-05T01:11:24.729Z,248.85
2023-05-05T01:12:24.790Z,248.95
2023-05-05T01:13:24.867Z,248.91
2023-05-05T01:14:24.903Z,248.59
2023-05-05T01:15:24.967Z,248.20
2023-05-05T01:16:25.091Z,248.25
2023-05-05T01:17:25.127Z,249.30
2023-05-05T01:18:25.097Z,248.46
2023-05-05T01:19:25.150Z,248.57
2023-05-05T01:20:25.206Z,248.46
2023-05-05T01:21:25.294Z,247.81
2023-05-05T01:22:25.318Z,248.71
2023-05-05T01:23:25.391Z,248.55
2023-05-05T01:24:25.445Z,248.65
2023-05-05T01:25:25.461Z,248.66
2023-05-05T01:26:25.559Z,248.30
2023-05-05T01:27:25.587Z,248.25
2023-05-05T01:28:25.668Z,248.79
2023-05-05T01:29:25.742Z,248.57
2023-05-05T01:30:25.788Z,248.84
2023-05-05T01:31:25.877Z,248.78
2023-05-05T01:32:25.911Z,248.24
2023-05-05T01:33:25.900Z,248.41
2023-05-05T01:34:25.953Z,248.15
2023-05-05T01:35:26.030Z,248.50
2023-05-05T01:36:26.065Z,248.49
2023-05-05T01:37:26.081Z,248.08
2023-05-05T01:38:26.200Z,248.12
2023-05-05T01:39:26.209Z,248.59
2023-05-05T01:40:26.272Z,248.62
2023-05-05T01:41:26.332Z,248.80
2023-05-05T01:42:26.372Z,248.68
2023-05-05T01:43:26.481Z,248.42
2023-05-05T01:44:26.508Z,248.53
2023-05-05T01:45:26.549Z,248.66
2023-05-05T01:46:26.644Z,248.65
2023-05-05T01:47:26.776Z,248.41
2023-05-05T01:48:26.722Z,247.97
2023-05-05T01:49:26.779Z,248.66
2023-05-05T01:50:26.836Z,248.61
2023-05-05T01:51:26.897Z,248.34
2023-05-05T01:52:26.930Z,248.53
2023-05-05T01:53:26.954Z,247.90
2023-05-05T01:54:27.069Z,248.25
2023-05-05T01:55:27.127Z,248.29
2023-05-05T01:56:27.160Z,248.11
2023-05-05T01:57:27.206Z,248.14
2023-05-05T01:58:27.246Z,248.68
2023-05-05T01:59:27.275Z,248.34
2023-05-05T02:00:27.361Z,248.69
2023-05-05T02:01:27.411Z,249.11
2023-05-05T02:02:27.547Z,248.16
2023-05-05T02:03:27.553Z,248.51
2023-05-05T02:04:27.596Z,249.46
2023-05-05T02:05:27.652Z,248.26
2023-05-05T02:06:27.761Z,248.72
2023-05-05T02:07:27.742Z,248.90
2023-05-05T02:08:27.778Z,248.81
2023-05-05T02:09:27.857Z,248.75
2023-05-05T02:10:27.907Z,249.05
2023-05-05T02:11:27.989Z,248.26
2023-05-05T02:12:28.017Z,248.38
2023-05-05T02:13:28.117Z,249.23
2023-05-05T02:14:28.132Z,248.68
2023-05-05T02:15:28.200Z,248.15
2023-05-05T02:16:28.257Z,248.98
2023-05-05T02:17:28.295Z,248.62
2023-05-05T02:18:28.381Z,248.26
2023-05-05T02:19:28.391Z,247.97
2023-05-05T02:20:28.453Z,249.07
2023-05-05T02:21:28.527Z,248.76
2023-05-05T02:22:28.576Z,247.89
2023-05-05T02:23:28.601Z,247.76
2023-05-05T02:24:28.644Z,247.86
2023-05-05T02:25:28.713Z,248.52
2023-05-05T02:26:28.791Z,247.70
2023-05-05T02:27:28.836Z,248.94
2023-05-05T02:28:28.950Z,249.16
2023-05-05T02:29:28.947Z,249.02
2023-05-05T02:30:28.989Z,248.85
2023-05-05T02:31:29.164Z,248.68
2023-05-05T02:32:29.160Z,248.91
2023-05-05T02:33:29.211Z,248.67
2023-05-05T02:34:29.265Z,248.62
2023-05-05T02:35:29.293Z,248.59
2023-05-05T02:36:29.463Z,248.51
2023-05-05T02:37:29.437Z,248.27
2023-05-05T02:38:29.474Z,248.40
2023-05-05T02:39:29.500Z,248.94
2023-05-05T02:40:29.583Z,248.95
2023-05-05T02:41:29.646Z,248.88
2023-05-05T02:42:29.706Z,248.25
2023-05-05T02:43:29.817Z,248.61
2023-05-05T02:44:29.819Z,248.31
2023-05-05T02:45:29.894Z,248.65
2023-05-05T02:46:29.986Z,248.07
2023-05-05T02:47:30.009Z,247.92
2023-05-05T02:48:30.073Z,248.87
2023-05-05T02:49:30.130Z,249.10
2023-05-05T02:50:30.165Z,248.23
2023-05-05T02:51:30.247Z,249.05
2023-05-05T02:52:30.301Z,248.20
2023-05-05T02:53:30.336Z,248.39
2023-05-05T02:54:30.400Z,248.43
2023-05-05T02:55:30.492Z,248.80
2023-05-05T02:56:30.529Z,248.08
2023-05-05T02:57:30.578Z,248.01
2023-05-05T02:58:30.623Z,248.00
2023-05-05T02:59:30.693Z,248.59
2023-05-05T03:00:30.760Z,247.94
2023-05-05T03:01:30.838Z,248.06
2023-05-05T03:02:30.983Z,248.67
2023-05-05T03:03:31.026Z,248.96
2023-05-05T03:04:30.994Z,248.84
2023-05-05T03:05:31.165Z,247.97
2023-05-05T03:06:31.135Z,248.50
2023-05-05T03:07:31.165Z,248.04
2023-05-05T03:08:31.281Z,248.28
2023-05-05T03:09:31.302Z,248.18
2023-05-05T03:10:31.333Z,249.12
2023-05-05T03:11:31.453Z,248.51
2023-05-05T03:12:31.495Z,248.85
2023-05-05T03:13:31.562Z,248.08
2023-05-05T03:14:33.366Z,248.62
2023-05-05T03:15:31.708Z,247.95
2023-05-05T03:16:31.764Z,247.95
2023-05-05T03:17:31.778Z,248.84
2023-05-05T03:18:31.825Z,248.52
2023-05-05T03:19:31.862Z,248.45
2023-05-05T03:20:31.962Z,247.31
2023-05-05T03:21:31.994Z,247.87
2023-05-05T03:22:32.072Z,248.01
2023-05-05T03:23:32.178Z,247.82
2023-05-05T03:24:32.176Z,249.06
2023-05-05T03:25:32.265Z,248.48
2023-05-05T03:26:32.309Z,247.94
2023-05-05T03:27:32.392Z,248.10
2023-05-05T03:28:32.441Z,248.23
2023-05-05T03:29:32.457Z,248.31
2023-05-05T03:30:32.550Z,248.00
2023-05-05T03:31:32.623Z,247.52
2023-05-05T03:32:32.681Z,249.14
2023-05-05T03:33:32.760Z,248.81
2023-05-05T03:34:32.779Z,247.27
2023-05-05T03:35:32.845Z,248.97
2023-05-05T03:36:32.899Z,248.65
2023-05-05T03:37:32.959Z,248.36
2023-05-05T03:38:33.009Z,249.02
2023-05-05T03:39:33.104Z,248.65
2023-05-05T03:40:43.488Z,247.63
2023-05-05T03:41:34.106Z,247.70
2023-05-05T03:42:33.142Z,247.75
2023-05-05T03:43:33.118Z,248.07
2023-05-05T03:44:33.110Z,248.17
2023-05-05T03:45:33.091Z,247.94
2023-05-05T03:46:33.131Z,248.65
2023-05-05T03:47:33.134Z,248.85
2023-05-05T03:48:33.054Z,248.86
2023-05-05T03:49:33.059Z,247.86
2023-05-05T03:50:33.076Z,247.76
2023-05-05T03:51:33.158Z,247.59
2023-05-05T03:52:33.219Z,248.86
2023-05-05T03:53:33.271Z,248.89
2023-05-05T03:54:33.365Z,248.06
2023-05-05T03:55:33.446Z,249.19
2023-05-05T03:56:33.459Z,249.37
2023-05-05T03:57:33.524Z,248.02
2023-05-05T03:58:33.575Z,248.55
2023-05-05T03:59:33.612Z,249.10
2023-05-05T04:00:33.654Z,248.67
2023-05-05T04:01:33.736Z,249.18
2023-05-05T04:02:33.913Z,248.59
2023-05-05T04:03:33.908Z,248.82
2023-05-05T04:04:33.967Z,249.41
2023-05-05T04:05:33.983Z,246.44
2023-05-05T04:06:34.015Z,245.48
2023-05-05T04:07:34.079Z,244.21
2023-05-05T04:08:34.133Z,242.26
2023-05-05T04:09:34.191Z,242.41
2023-05-05T04:10:34.276Z,240.15
2023-05-05T04:11:34.298Z,239.39
2023-05-05T04:12:34.382Z,238.34
2023-05-05T04:13:34.406Z,237.52
2023-05-05T04:14:34.446Z,236.09
2023-05-05T04:15:34.449Z,233.06
2023-05-05T04:16:34.469Z,231.65
2023-05-05T04:17:34.518Z,231.06
2023-05-05T04:18:34.557Z,229.08
2023-05-05T04:19:34.551Z,227.76
2023-05-05T04:20:34.544Z,226.46
2023-05-05T04:21:34.617Z,224.21
2023-05-05T04:22:34.646Z,223.64
2023-05-05T04:23:34.707Z,222.21
2023-05-05T04:24:34.713Z,221.31
2023-05-05T04:25:34.876Z,219.19
2023-05-05T04:26:34.800Z,217.88
2023-05-05T04:27:34.879Z,215.58
2023-05-05T04:28:34.832Z,214.48
2023-05-05T04:29:34.885Z,214.98
2023-05-05T04:30:34.889Z,214.92
2023-05-05T04:31:34.935Z,216.88
2023-05-05T04:32:34.932Z,218.39
2023-05-05T04:33:34.994Z,219.71
2023-05-05T04:34:34.904Z,220.89
2023-05-05T04:35:34.990Z,219.82
2023-05-05T04:36:34.997Z,220.34
2023-05-05T04:37:35.073Z,221.62
2023-05-05T04:38:35.134Z,220.77
2023-05-05T04:39:35.171Z,221.76
2023-05-05T04:40:35.191Z,220.92
2023-05-05T04:41:35.241Z,221.25
2023-05-05T04:42:35.287Z,220.29
2023-05-05T04:43:35.253Z,221.95
2023-05-05T04:44:35.271Z,221.84
2023-05-05T04:45:35.307Z,219.67
2023-05-05T04:46:35.366Z,217.80
2023-05-05T04:47:35.382Z,220.63
2023-05-05T04:48:35.388Z,223.58
2023-05-05T04:49:35.382Z,226.10
2023-05-05T04:50:35.395Z,228.28
2023-05-05T04:51:35.417Z,230.77
2023-05-05T04:52:35.450Z,232.21
2023-05-05T04:53:35.481Z,232.54
2023-05-05T04:54:35.488Z,234.25
2023-05-05T04:55:35.538Z,233.30
2023-05-05T04:56:35.531Z,232.27
2023-05-05T04:57:35.626Z,231.19
2023-05-05T04:58:35.665Z,230.20
2023-05-05T04:59:35.733Z,229.50
2023-05-05T05:00:35.737Z,229.06
2023-05-05T05:01:38.265Z,228.67
2023-05-05T05:02:35.855Z,228.93
2023-05-05T05:03:35.852Z,228.71
2023-05-05T05:04:35.768Z,227.49
2023-05-05T05:05:35.734Z,227.13
2023-05-05T05:06:35.736Z,228.82
2023-05-05T05:07:35.741Z,227.98
2023-05-05T05:08:35.780Z,227.21
2023-05-05T05:09:35.718Z,227.19
2023-05-05T05:10:35.765Z,226.19
2023-05-05T05:11:35.713Z,226.83
2023-05-05T05:12:35.766Z,226.27
2023-05-05T05:13:35.678Z,226.16
2023-05-05T05:14:35.709Z,226.11
2023-05-05T05:15:35.696Z,225.57
2023-05-05T05:16:35.729Z,226.35
2023-05-05T05:17:35.686Z,225.55
2023-05-05T05:18:35.716Z,224.62
2023-05-05T05:19:35.662Z,225.38
2023-05-05T05:20:35.643Z,226.17
2023-05-05T05:21:35.647Z,226.00
2023-05-05T05:22:35.627Z,225.49
2023-05-05T05:23:35.619Z,225.04
2023-05-05T05:24:35.649Z,224.82
2023-05-05T05:25:35.655Z,225.81
2023-05-05T05:26:35.614Z,225.98
2023-05-05T05:27:35.645Z,225.33
2023-05-05T05:28:35.606Z,225.40
2023-05-05T05:29:35.587Z,226.44
2023-05-05T05:30:35.594Z,225.31
2023-05-05T05:31:35.624Z,226.21
2023-05-05T05:32:35.633Z,226.32
2023-05-05T05:33:35.608Z,225.90
2023-05-05T05:34:35.942Z,226.34
2023-05-05T05:35:35.553Z,226.49
2023-05-05T05:36:35.571Z,226.88
2023-05-05T05:37:35.583Z,226.94
2023-05-05T05:38:35.554Z,226.60
2023-05-05T05:39:35.575Z,226.33
2023-05-05T05:40:35.555Z,226.79
2023-05-05T05:41:35.532Z,226.23
2023-05-05T05:42:35.575Z,225.03
2023-05-05T05:43:35.498Z,225.77
2023-05-05T05:44:35.909Z,225.65
2023-05-05T05:45:35.479Z,225.22
2023-05-05T05:46:35.591Z,224.68
2023-05-05T05:47:35.513Z,226.08
2023-05-05T05:48:36.473Z,225.32
2023-05-05T05:49:36.056Z,226.95
2023-05-05T05:50:35.544Z,227.55
2023-05-05T05:51:35.504Z,227.87
2023-05-05T05:52:35.427Z,227.81
2023-05-05T05:53:35.478Z,229.11
2023-05-05T05:54:36.085Z,230.24
2023-05-05T05:55:37.529Z,229.58
2023-05-05T05:56:35.984Z,230.68
2023-05-05T05:57:35.496Z,228.93
2023-05-05T05:58:35.481Z,229.38
2023-05-05T05:59:35.470Z,229.99
2023-05-05T06:00:35.421Z,231.09
2023-05-05T06:01:35.506Z,229.09
2023-05-05T06:02:35.513Z,228.03
2023-05-05T06:03:35.528Z,229.31
2023-05-05T06:04:35.766Z,229.67
2023-05-05T06:05:35.485Z,228.64
2023-05-05T06:06:35.514Z,228.80
2023-05-05T06:07:35.599Z,228.61
2023-05-05T06:08:36.019Z,229.81
2023-05-05T06:09:35.636Z,228.67
2023-05-05T06:10:35.711Z,227.30
2023-05-05T06:11:35.723Z,227.88
2023-05-05T06:12:35.683Z,228.13
2023-05-05T06:13:35.974Z,227.98
2023-05-05T06:14:35.701Z,228.69
2023-05-05T06:15:35.792Z,228.17
2023-05-05T06:16:35.773Z,227.49
2023-05-05T06:17:36.471Z,225.46
2023-05-05T06:18:35.778Z,226.89
2023-05-05T06:19:35.749Z,225.56
2023-05-05T06:20:35.795Z,225.04
2023-05-05T06:21:35.765Z,223.78
2023-05-05T06:22:35.800Z,222.29
2023-05-05T06:23:35.767Z,221.22
2023-05-05T06:24:35.781Z,221.71
2023-05-05T06:25:35.756Z,223.30
2023-05-05T06:26:35.814Z,224.84
2023-05-05T06:27:35.844Z,226.67
2023-05-05T06:28:35.969Z,227.92
2023-05-05T06:29:35.925Z,228.16
2023-05-05T06:30:35.987Z,229.08
2023-05-05T06:31:36.052Z,228.57
2023-05-05T06:32:36.145Z,230.13
2023-05-05T06:33:36.196Z,230.54
2023-05-05T06:34:36.239Z,231.17
2023-05-05T06:35:36.440Z,231.57
2023-05-05T06:36:36.303Z,231.31
2023-05-05T06:37:36.267Z,231.80
2023-05-05T06:38:36.317Z,231.44
2023-05-05T06:39:36.321Z,233.11
2023-05-05T06:40:36.464Z,233.38
2023-05-05T06:41:36.410Z,233.19
2023-05-05T06:42:36.405Z,233.75
2023-05-05T06:43:36.435Z,233.94
2023-05-05T06:44:36.491Z,233.46
2023-05-05T06:45:36.481Z,233.78
2023-05-05T06:46:36.526Z,235.20
2023-05-05T06:47:36.556Z,234.80
2023-05-05T06:48:36.494Z,235.24
2023-05-05T06:49:36.426Z,235.49
2023-05-05T06:50:36.464Z,235.73
2023-05-05T06:51:36.442Z,235.31
2023-05-05T06:52:37.952Z,235.92
2023-05-05T06:53:36.474Z,236.16
2023-05-05T06:54:36.508Z,236.34
2023-05-05T06:55:36.994Z,237.20
2023-05-05T06:56:37.476Z,236.41
2023-05-05T06:57:36.493Z,237.02
2023-05-05T06:58:37.134Z,237.19
2023-05-05T06:59:36.556Z,236.88
2023-05-05T07:00:36.668Z,237.67
2023-05-05T07:01:36.709Z,236.71
2023-05-05T07:02:36.752Z,238.16
2023-05-05T07:03:36.820Z,237.65
2023-05-05T07:04:36.943Z,237.23
2023-05-05T07:05:36.912Z,238.02
2023-05-05T07:06:36.955Z,238.28
2023-05-05T07:07:37.043Z,238.61
2023-05-05T07:08:37.470Z,238.55
2023-05-05T07:09:37.104Z,239.15
2023-05-05T07:10:37.209Z,238.73
2023-05-05T07:11:37.231Z,238.88
2023-05-05T07:12:37.385Z,238.91
2023-05-05T07:13:37.558Z,239.92
2023-05-05T07:14:37.539Z,240.52
2023-05-05T07:15:37.487Z,239.58
2023-05-05T07:16:37.581Z,239.66
2023-05-05T07:17:37.590Z,239.97
2023-05-05T07:18:37.645Z,240.62
2023-05-05T07:19:37.656Z,240.75
2023-05-05T07:20:37.671Z,240.69
2023-05-05T07:21:37.753Z,240.75
2023-05-05T07:22:37.812Z,241.05
2023-05-05T07:23:37.925Z,241.23
2023-05-05T07:24:37.854Z,240.76
2023-05-05T07:25:37.896Z,241.66
2023-05-05T07:26:37.921Z,241.60
2023-05-05T07:27:37.883Z,241.73
2023-05-05T07:28:38.007Z,241.32
2023-05-05T07:29:38.049Z,241.95
2023-05-05T07:30:38.116Z,241.70
2023-05-05T07:31:38.498Z,242.55
2023-05-05T07:32:38.121Z,241.98
2023-05-05T07:33:38.070Z,241.55
2023-05-05T07:34:38.221Z,239.66
2023-05-05T07:35:38.488Z,239.41
2023-05-05T07:36:38.151Z,240.39
2023-05-05T07:37:38.200Z,239.62
2023-05-05T07:38:38.483Z,239.82
2023-05-05T07:39:38.470Z,240.04
2023-05-05T07:40:38.473Z,240.58
2023-05-05T07:41:38.292Z,237.73
2023-05-05T07:42:38.264Z,237.61
2023-05-05T07:43:39.392Z,237.31
2023-05-05T07:44:38.522Z,233.20
2023-05-05T07:45:38.331Z,228.93
2023-05-05T07:46:38.612Z,226.86
2023-05-05T07:47:38.444Z,223.78
2023-05-05T07:48:38.376Z,222.31
2023-05-05T07:49:38.583Z,220.50
2023-05-05T07:50:38.487Z,218.83
2023-05-05T07:51:38.488Z,215.83
2023-05-05T07:53:39.468Z,213.75
2023-05-05T07:54:38.528Z,208.46
2023-05-05T07:55:38.492Z,205.80
2023-05-05T07:56:38.453Z,205.11
2023-05-05T07:57:38.440Z,201.44
2023-05-05T07:58:38.530Z,200.30
2023-05-05T07:59:38.462Z,199.92
2023-05-05T08:00:38.480Z,196.62
2023-05-05T08:01:38.417Z,193.74
2023-05-05T08:02:38.611Z,192.17
2023-05-05T08:03:38.678Z,191.67
2023-05-05T08:04:38.403Z,191.35
2023-05-05T08:05:38.371Z,188.99
2023-05-05T08:06:38.343Z,184.77
2023-05-05T08:07:38.381Z,183.67
2023-05-05T08:08:38.389Z,183.36
2023-05-05T08:09:38.369Z,179.16
2023-05-05T08:10:38.338Z,178.29
2023-05-05T08:11:38.353Z,175.65
2023-05-05T08:12:38.439Z,174.53
2023-05-05T08:13:38.334Z,177.37
2023-05-05T08:14:38.373Z,181.68
2023-05-05T08:15:38.532Z,185.44
2023-05-05T08:16:38.384Z,189.32
2023-05-05T08:17:38.447Z,191.79
2023-05-05T08:18:38.541Z,195.62
2023-05-05T08:19:38.430Z,199.56
2023-05-05T08:20:38.523Z,201.65
2023-05-05T08:21:38.422Z,201.86
2023-05-05T08:22:38.424Z,202.70
2023-05-05T08:23:38.448Z,205.46
2023-05-05T08:24:38.412Z,207.91
2023-05-05T08:25:38.514Z,208.02
2023-05-05T08:26:38.446Z,204.68
2023-05-05T08:27:38.419Z,208.16
2023-05-05T08:28:38.429Z,205.01
2023-05-05T08:29:38.527Z,181.39
2023-05-05T08:30:38.474Z,157.31
2023-05-05T08:31:38.568Z,134.47
2023-05-05T08:32:38.812Z,135.92
2023-05-05T08:33:38.673Z,115.62
2023-05-05T08:34:38.779Z,106.87
2023-05-05T08:35:38.801Z,93.70
2023-05-05T08:36:39.078Z,85.08
2023-05-05T08:37:39.109Z,71.66
2023-05-05T08:38:38.820Z,68.42
2023-05-05T08:39:38.816Z,56.31
2023-05-05T08:40:38.864Z,54.70
2023-05-05T08:41:38.867Z,47.55
2023-05-05T08:42:39.610Z,54.22
2023-05-05T08:43:38.984Z,54.95
2023-05-05T08:44:38.919Z,61.98
2023-05-05T08:45:38.920Z,65.80
2023-05-05T08:46:39.090Z,74.49
2023-05-05T08:47:39.092Z,86.18
2023-05-05T08:48:38.908Z,80.03
2023-05-05T08:49:38.917Z,83.23
2023-05-05T08:50:39.047Z,89.18
2023-05-05T08:51:39.005Z,106.49
2023-05-05T08:52:38.947Z,108.37
2023-05-05T08:53:38.917Z,110.06
2023-05-05T08:54:39.036Z,110.76
2023-05-05T08:55:39.042Z,109.87
2023-05-05T08:56:39.099Z,119.79
2023-05-05T08:57:39.145Z,108.07
2023-05-05T08:58:39.202Z,101.97
2023-05-05T08:59:39.271Z,107.45
2023-05-05T09:00:39.326Z,103.49
2023-05-05T09:01:39.403Z,101.58
2023-05-05T09:02:39.457Z,96.20
2023-05-05T09:03:39.529Z,80.95
2023-05-05T09:04:40.039Z,73.61
2023-05-05T09:05:39.613Z,66.26
2023-05-05T09:06:39.731Z,74.41
2023-05-05T09:07:39.710Z,66.74
2023-05-05T09:08:39.788Z,51.45
2023-05-05T09:09:39.789Z,46.03
2023-05-05T09:10:39.767Z,42.43
2023-05-05T09:11:39.812Z,50.32
2023-05-05T09:12:40.100Z,45.89
2023-05-05T09:13:40.085Z,42.13
2023-05-05T09:14:39.835Z,46.67
2023-05-05T09:15:39.877Z,36.43
2023-05-05T09:16:39.968Z,32.78
2023-05-05T09:17:40.019Z,16.01
2023-05-05T09:18:40.056Z,13.89
2023-05-05T09:19:40.062Z,15.84
2023-05-05T09:20:40.052Z,21.50
2023-05-05T09:21:40.072Z,31.38
2023-05-05T09:22:40.223Z,36.62
2023-05-05T09:23:40.563Z,37.29
2023-05-05T09:24:40.144Z,44.52
2023-05-05T09:25:40.229Z,50.89
2023-05-05T09:26:40.280Z,54.46
2023-05-05T09:27:40.576Z,53.23
2023-05-05T09:28:40.529Z,61.64
2023-05-05T09:29:40.390Z,85.30
2023-05-05T09:30:40.423Z,81.31
2023-05-05T09:31:40.411Z,89.90
2023-05-05T09:32:40.410Z,97.34
2023-05-05T09:33:40.360Z,88.50
2023-05-05T09:34:40.424Z,78.38
2023-05-05T09:35:40.453Z,82.33
2023-05-05T09:36:40.558Z,76.81
2023-05-05T09:37:40.603Z,73.30
2023-05-05T09:38:40.798Z,67.26
2023-05-05T09:39:40.674Z,54.28
2023-05-05T09:40:40.733Z,45.76
2023-05-05T09:41:40.844Z,45.98
2023-05-05T09:42:40.843Z,44.81
2023-05-05T09:43:41.057Z,48.25
2023-05-05T09:44:40.966Z,51.41
2023-05-05T09:45:41.046Z,56.54
2023-05-05T09:46:41.156Z,36.94
2023-05-05T09:47:41.229Z,23.32
2023-05-05T09:48:41.552Z,25.00
2023-05-05T09:49:41.237Z,27.36
2023-05-05T09:50:41.266Z,30.13
2023-05-05T09:51:41.396Z,30.61
2023-05-05T09:52:41.414Z,31.98
2023-05-05T09:53:41.582Z,30.12
2023-05-05T09:54:41.571Z,35.72
2023-05-05T09:55:41.547Z,36.03
2023-05-05T09:56:41.586Z,32.20
2023-05-05T09:57:41.654Z,29.58
2023-05-05T09:58:41.780Z,23.29
2023-05-05T09:59:42.076Z,18.39
2023-05-05T10:00:41.778Z,22.63
2023-05-05T10:01:41.820Z,29.70
2023-05-05T10:02:41.947Z,35.53
2023-05-05T10:03:41.811Z,39.45
2023-05-05T10:04:41.894Z,39.64
2023-05-05T10:05:41.883Z,34.72
2023-05-05T10:06:41.882Z,33.38
2023-05-05T10:07:41.869Z,36.65
2023-05-05T10:08:41.926Z,36.83
2023-05-05T10:09:41.987Z,35.50
2023-05-05T10:10:42.045Z,28.28
2023-05-05T10:11:41.954Z,28.31
2023-05-05T10:12:42.129Z,35.65
2023-05-05T10:13:42.114Z,48.37
2023-05-05T10:14:41.974Z,74.36
2023-05-05T10:15:42.025Z,81.72
2023-05-05T10:16:42.146Z,71.42
2023-05-05T10:17:47.865Z,77.14
2023-05-05T10:18:43.212Z,77.34
2023-05-05T10:19:42.074Z,78.84
2023-05-05T10:20:42.063Z,77.23
2023-05-05T10:21:42.308Z,80.76
2023-05-05T10:22:42.034Z,82.10
2023-05-05T10:23:42.063Z,72.52
2023-05-05T10:24:42.136Z,68.84
2023-05-05T10:25:42.044Z,69.35
2023-05-05T10:26:42.058Z,68.59
2023-05-05T10:27:42.068Z,72.00
2023-05-05T10:28:42.138Z,75.88
2023-05-05T10:29:42.195Z,79.63
2023-05-05T10:30:42.258Z,80.63
2023-05-05T10:31:42.293Z,84.63
2023-05-05T10:33:42.442Z,93.89
2023-05-05T10:34:42.356Z,101.30
2023-05-05T10:35:42.303Z,104.82
2023-05-05T10:36:42.302Z,103.36
2023-05-05T10:37:42.698Z,110.36
2023-05-05T10:38:42.254Z,113.47
2023-05-05T10:39:42.320Z,112.92
2023-05-05T10:40:42.283Z,115.31
2023-05-05T10:41:42.625Z,121.67
2023-05-05T10:42:42.402Z,123.63
2023-05-05T10:43:42.234Z,129.68
2023-05-05T10:44:42.259Z,134.51
2023-05-05T10:45:42.364Z,135.14
2023-05-05T10:46:42.369Z,136.91
2023-05-05T10:47:42.222Z,138.86
2023-05-05T10:48:42.217Z,142.50
2023-05-05T10:49:42.182Z,146.70
2023-05-05T10:50:42.243Z,149.60
2023-05-05T10:51:42.636Z,151.57
2023-05-05T10:52:42.593Z,153.20
2023-05-05T10:53:42.184Z,155.90
2023-05-05T10:54:42.181Z,159.43
2023-05-05T10:55:42.602Z,160.08
2023-05-05T10:56:42.153Z,160.15
2023-05-05T10:57:42.164Z,162.78
2023-05-05T10:58:58.186Z,162.07
2023-05-05T10:59:43.135Z,160.91
2023-05-05T11:00:42.164Z,162.14
2023-05-05T11:01:42.131Z,163.34
2023-05-05T11:02:42.598Z,164.66
2023-05-05T11:03:42.134Z,168.00
2023-05-05T11:04:42.083Z,175.33
2023-05-05T11:05:42.121Z,177.40
2023-05-05T11:06:42.111Z,169.90
2023-05-05T11:07:42.098Z,170.68
2023-05-05T11:08:42.078Z,168.00
2023-05-05T11:09:42.032Z,164.05
2023-05-05T11:10:42.105Z,168.88
2023-05-05T11:11:42.125Z,169.17
2023-05-05T11:12:42.243Z,170.09
2023-05-05T11:13:42.285Z,167.62
2023-05-05T11:14:42.333Z,168.14
2023-05-05T11:15:42.366Z,168.32
2023-05-05T11:16:42.429Z,173.27
2023-05-05T11:17:42.520Z,180.64
2023-05-05T11:18:42.608Z,187.61
2023-05-05T11:19:42.560Z,191.85
2023-05-05T11:20:42.617Z,190.33
2023-05-05T11:21:43.128Z,188.18
2023-05-05T11:22:42.690Z,181.07
2023-05-05T11:23:42.753Z,174.51
2023-05-05T11:24:42.795Z,169.76
2023-05-05T11:25:42.818Z,165.99
2023-05-05T11:26:42.841Z,163.42
2023-05-05T11:27:42.911Z,158.89
2023-05-05T11:28:42.942Z,154.85
2023-05-05T11:29:43.010Z,151.33
2023-05-05T11:30:43.108Z,158.34
2023-05-05T11:31:43.044Z,149.27
2023-05-05T11:32:43.150Z,146.23
2023-05-05T11:33:43.164Z,140.32
2023-05-05T11:34:43.198Z,137.61
2023-05-05T11:35:43.243Z,137.66
2023-05-05T11:36:43.294Z,136.51
2023-05-05T11:37:43.274Z,144.38
2023-05-05T11:38:43.361Z,145.77
2023-05-05T11:39:43.378Z,135.24
2023-05-05T11:40:43.393Z,135.98
2023-05-05T11:41:43.450Z,139.99
2023-05-05T11:42:43.507Z,134.75
2023-05-05T11:43:43.543Z,126.89
2023-05-05T11:44:43.574Z,129.01
2023-05-05T11:45:43.624Z,139.75
2023-05-05T11:46:43.772Z,140.95
2023-05-05T11:47:43.727Z,140.26
2023-05-05T11:48:43.779Z,136.91
2023-05-05T11:49:43.827Z,127.11
2023-05-05T11:50:43.844Z,122.39
2023-05-05T11:51:43.912Z,128.16
2023-05-05T11:52:43.958Z,134.96
2023-05-05T11:53:43.980Z,139.09
2023-05-05T11:54:44.034Z,132.19
2023-05-05T11:55:44.027Z,130.93
2023-05-05T11:56:44.147Z,134.00
2023-05-05T11:57:44.113Z,130.56
2023-05-05T11:58:44.160Z,130.10
2023-05-05T11:59:44.215Z,133.95
2023-05-05T12:00:44.274Z,133.78
2023-05-05T12:01:44.289Z,136.32
2023-05-05T12:02:44.512Z,145.04
2023-05-05T12:03:44.480Z,153.07
2023-05-05T12:04:44.421Z,160.50
2023-05-05T12:05:44.424Z,165.41
2023-05-05T12:06:44.447Z,176.00
2023-05-05T12:07:44.472Z,132.87
2023-05-05T12:08:44.539Z,110.09
2023-05-05T12:09:44.595Z,98.85
2023-05-05T12:10:44.611Z,98.48
2023-05-05T12:11:44.658Z,100.26
2023-05-05T12:12:44.736Z,101.68
2023-05-05T12:13:44.778Z,77.16
2023-05-05T12:14:44.821Z,74.93
2023-05-05T12:15:44.880Z,77.69
2023-05-05T12:16:45.026Z,79.33
2023-05-05T12:17:45.295Z,77.46
2023-05-05T12:18:45.109Z,75.68
2023-05-05T12:19:45.120Z,68.02
2023-05-05T12:20:45.150Z,63.61
2023-05-05T12:21:45.232Z,62.18
2023-05-05T12:22:45.328Z,60.24
2023-05-05T12:23:45.317Z,60.18
2023-05-05T12:24:45.400Z,58.67
2023-05-05T12:25:45.433Z,39.36
2023-05-05T12:26:45.474Z,34.98
2023-05-05T12:27:45.475Z,29.18
2023-05-05T12:28:45.482Z,32.25
2023-05-05T12:29:45.594Z,36.16
2023-05-05T12:30:45.629Z,30.02
2023-05-05T12:31:45.686Z,25.71
2023-05-05T12:32:45.765Z,26.65
2023-05-05T12:33:45.774Z,31.11
2023-05-05T12:34:45.839Z,33.12